createdAt,value
2022-08-16T00:02:31.454Z,22.16
2022-08-16T00:05:05.896Z,22.15
2022-08-16T00:07:56.379Z,22.12
2022-08-16T00:11:07.292Z,22.10
2022-08-16T00:13:56.457Z,22.06
2022-08-16T00:17:06.292Z,22.04
2022-08-16T00:19:41.481Z,22.00
2022-08-16T00:22:15.226Z,21.95
2022-08-16T00:26:36.100Z,21.90
2022-08-16T00:28:36.426Z,21.83
2022-08-16T00:32:18.267Z,21.77
2022-08-16T00:35:56.561Z,21.72
2022-08-16T00:39:24.283Z,21.72
2022-08-16T00:43:16.900Z,21.68
2022-08-16T00:50:39.598Z,21.59
2022-08-16T00:53:43.429Z,21.57
2022-08-16T00:56:56.264Z,21.54
2022-08-16T00:59:54.870Z,21.51
2022-08-16T01:02:47.001Z,21.48
2022-08-16T01:05:42.459Z,21.47
2022-08-16T01:08:35.846Z,21.49
2022-08-16T01:11:29.377Z,21.49
2022-08-16T01:14:29.730Z,21.52
2022-08-16T01:17:25.711Z,21.53
2022-08-16T01:20:51.531Z,21.57
2022-08-16T01:24:52.688Z,21.57
2022-08-16T01:27:44.373Z,21.58
2022-08-16T01:30:57.791Z,21.57
2022-08-16T01:33:44.438Z,21.59
2022-08-16T01:36:18.669Z,21.54
2022-08-16T01:38:57.017Z,21.46
2022-08-16T01:41:32.883Z,21.42
2022-08-16T01:44:37.818Z,21.42
2022-08-16T01:47:12.843Z,21.40
2022-08-16T01:50:43.517Z,21.38
2022-08-16T01:53:11.047Z,21.37
2022-08-16T01:56:26.228Z,21.38
2022-08-16T01:59:21.144Z,21.40
2022-08-16T02:02:00.070Z,21.37
2022-08-16T02:04:49.626Z,21.32
2022-08-16T02:07:33.548Z,21.23
2022-08-16T02:10:09.456Z,21.16
2022-08-16T02:12:51.439Z,21.09
2022-08-16T02:15:38.730Z,21.03
2022-08-16T02:18:20.842Z,20.97
2022-08-16T02:22:08.927Z,20.92
2022-08-16T02:26:02.614Z,20.87
2022-08-16T02:29:34.586Z,20.83
2022-08-16T02:33:09.296Z,20.79
2022-08-16T02:36:06.435Z,20.77
2022-08-16T02:39:33.819Z,20.75
2022-08-16T02:42:59.306Z,20.71
2022-08-16T02:46:16.595Z,20.65
2022-08-16T02:49:08.611Z,20.61
2022-08-16T02:52:43.831Z,20.57
2022-08-16T02:59:21.283Z,20.52
2022-08-16T03:01:51.420Z,20.51
2022-08-16T03:04:50.396Z,20.50
2022-08-16T03:07:27.512Z,20.46
2022-08-16T03:10:03.057Z,20.45
2022-08-16T03:12:56.282Z,20.42
2022-08-16T03:15:37.519Z,20.40
2022-08-16T03:18:40.200Z,20.40
2022-08-16T03:21:18.556Z,20.39
2022-08-16T03:24:29.280Z,20.37
2022-08-16T03:27:59.851Z,20.34
2022-08-16T03:31:52.441Z,20.33
2022-08-16T03:35:41.620Z,20.31
2022-08-16T03:39:20.285Z,20.28
2022-08-16T03:43:00.440Z,20.25
2022-08-16T03:46:50.488Z,20.20
2022-08-16T03:50:26.094Z,20.17
2022-08-16T03:53:42.759Z,20.16
2022-08-16T03:57:36.432Z,20.15
2022-08-16T04:01:02.582Z,20.18
2022-08-16T04:05:04.029Z,20.22
2022-08-16T04:08:23.735Z,20.27
2022-08-16T04:14:58.333Z,20.34
2022-08-16T04:18:34.685Z,20.33
2022-08-16T04:22:08.651Z,20.33
2022-08-16T04:25:58.202Z,20.32
2022-08-16T04:28:53.594Z,20.34
2022-08-16T04:31:57.772Z,20.35
2022-08-16T04:34:38.612Z,20.39
2022-08-16T04:37:18.984Z,20.40
2022-08-16T04:39:57.314Z,20.42
2022-08-16T04:42:35.916Z,20.44
2022-08-16T04:45:36.273Z,20.46
2022-08-16T04:48:32.606Z,20.51
2022-08-16T04:51:14.842Z,20.55
2022-08-16T04:53:47.011Z,20.60
2022-08-16T04:56:24.902Z,20.64
2022-08-16T04:59:00.311Z,20.70
2022-08-16T05:01:55.287Z,20.76
2022-08-16T05:04:30.061Z,20.82
2022-08-16T05:07:06.839Z,20.91
2022-08-16T05:09:53.390Z,21.01
2022-08-16T05:12:30.526Z,21.14
2022-08-16T05:15:03.737Z,21.29
2022-08-16T05:21:01.372Z,21.60
